Time;durP1;ratioP1;P1;durP2;ratioP2;P2;SDS_P1;SDS_P2;PMS_P1;PMS_P2;Temp;Humidity;BMP_temperature;BMP_pressure;BME280_temperature;BME280_humidity;BME280_pressure;Samples;Min_cycle;Max_cycle;Signal;HPM_P1;HPM_P2
2022/11/12 00:00:44;;;;;;;26.30;15.18;;;8.10;99.90;;;;;;5013902;28;20101;-83
2022/11/12 00:03:10;;;;;;;25.80;14.98;;;8.10;99.90;;;;;;5013638;28;20077;-87
2022/11/12 00:05:36;;;;;;;27.30;16.00;;;8.10;99.90;;;;;;4997335;28;20054;-81
2022/11/12 00:08:02;;;;;;;32.20;16.05;;;8.10;99.90;;;;;;4979406;28;20057;-83
2022/11/12 00:10:30;;;;;;;24.55;15.30;;;8.10;99.90;;;;;;4999040;28;20108;-85
2022/11/12 00:12:56;;;;;;;25.30;15.63;;;8.10;99.90;;;;;;5017184;28;20058;-82
2022/11/12 00:15:22;;;;;;;28.40;17.15;;;8.10;99.90;;;;;;4995793;28;20057;-82
2022/11/12 00:17:48;;;;;;;28.90;16.25;;;8.10;99.90;;;;;;4996338;28;20057;-81
2022/11/12 00:20:14;;;;;;;26.23;15.15;;;8.10;99.90;;;;;;5012568;28;20065;-82
2022/11/12 00:22:40;;;;;;;29.55;16.15;;;8.10;99.90;;;;;;4995566;28;20085;-82
2022/11/12 00:25:07;;;;;;;28.40;15.52;;;8.10;99.90;;;;;;5017463;28;20061;-82
2022/11/12 00:27:34;;;;;;;35.92;16.48;;;8.10;99.90;;;;;;5022983;28;20049;-85
2022/11/12 00:30:00;;;;;;;30.67;16.48;;;8.10;99.90;;;;;;5015180;28;20058;-83
2022/11/12 00:32:26;;;;;;;30.75;17.00;;;8.00;99.90;;;;;;4995922;28;20054;-83
2022/11/12 00:34:52;;;;;;;26.08;15.80;;;8.00;99.90;;;;;;5012724;28;20058;-82
2022/11/12 00:37:19;;;;;;;27.92;15.23;;;8.00;99.90;;;;;;5012936;28;20057;-82
2022/11/12 00:39:46;;;;;;;27.33;15.00;;;8.00;99.90;;;;;;4998423;28;20058;-82
2022/11/12 00:42:11;;;;;;;29.85;15.93;;;7.90;99.90;;;;;;4979404;28;20107;-84
2022/11/12 00:44:37;;;;;;;33.20;18.40;;;7.90;99.90;;;;;;5013252;28;20453;-82
2022/11/12 00:47:03;;;;;;;25.40;15.23;;;7.90;99.90;;;;;;4996787;28;20045;-83
2022/11/12 00:49:29;;;;;;;27.83;15.68;;;7.90;99.90;;;;;;4995029;28;20057;-81
2022/11/12 00:51:55;;;;;;;29.73;15.18;;;7.80;99.90;;;;;;4999043;28;20061;-82
2022/11/12 00:54:21;;;;;;;29.35;16.65;;;7.80;99.90;;;;;;5013243;28;20104;-86
2022/11/12 00:56:47;;;;;;;30.77;16.83;;;7.80;99.90;;;;;;5013163;28;20045;-82
2022/11/12 00:59:14;;;;;;;31.08;17.35;;;7.70;99.90;;;;;;4997884;28;20050;-83
2022/11/12 01:01:40;;;;;;;35.17;16.40;;;7.70;99.90;;;;;;5017304;28;20054;-83
2022/11/12 01:04:07;;;;;;;29.98;17.60;;;7.80;99.90;;;;;;5014847;28;20045;-85
2022/11/12 01:06:33;;;;;;;33.58;17.73;;;7.80;99.90;;;;;;4983098;28;20505;-84
2022/11/12 01:08:59;;;;;;;33.97;17.63;;;7.80;99.90;;;;;;4995296;28;20097;-82
2022/11/12 01:11:28;;;;;;;33.38;18.40;;;7.80;99.90;;;;;;5012820;28;20129;-83
2022/11/12 01:13:57;;;;;;;38.25;17.02;;;7.70;99.90;;;;;;5012614;28;20042;-83
2022/11/12 01:16:28;;;;;;;28.50;18.23;;;7.70;99.90;;;;;;5012837;28;20077;-85
2022/11/12 01:18:55;;;;;;;34.67;18.90;;;7.70;99.90;;;;;;5013198;28;20069;-84
2022/11/12 01:21:24;;;;;;;34.67;17.95;;;7.70;99.90;;;;;;5017345;28;20054;-82
2022/11/12 01:23:50;;;;;;;30.75;17.17;;;7.60;99.90;;;;;;5013034;28;20054;-83
2022/11/12 01:26:21;;;;;;;33.95;19.00;;;7.60;99.90;;;;;;5012573;28;20113;-85
2022/11/12 01:28:48;;;;;;;32.63;18.08;;;7.60;99.90;;;;;;5012200;28;20057;-85
2022/11/12 01:31:25;;;;;;;29.90;17.17;;;7.50;99.90;;;;;;4978775;28;20417;-83
2022/11/12 01:33:58;;;;;;;28.55;17.13;;;7.50;99.90;;;;;;5017515;28;20046;-82
2022/11/12 01:36:25;;;;;;;32.78;17.80;;;7.50;99.90;;;;;;5012087;28;20060;-82
2022/11/12 01:38:52;;;;;;;27.42;16.13;;;7.50;99.90;;;;;;4994193;28;20060;-81
2022/11/12 01:41:21;;;;;;;28.02;15.45;;;7.50;99.90;;;;;;5011910;28;20053;-82
2022/11/12 01:44:05;;;;;;;36.40;19.10;;;7.40;99.90;;;;;;5012271;28;20049;-82
2022/11/12 01:46:33;;;;;;;25.65;16.48;;;7.40;99.90;;;;;;4997311;28;20061;-83
2022/11/12 01:49:03;;;;;;;30.13;16.65;;;7.30;99.90;;;;;;5015704;28;20088;-85
2022/11/12 01:51:39;;;;;;;31.65;17.67;;;7.30;99.90;;;;;;4994855;28;20050;-85
2022/11/12 01:54:09;;;;;;;33.17;17.92;;;7.30;99.90;;;;;;5011751;28;20054;-84
2022/11/12 01:56:37;;;;;;;31.40;18.05;;;7.30;99.90;;;;;;5012420;28;20046;-81
2022/11/12 01:59:10;;;;;;;35.92;19.45;;;7.30;99.90;;;;;;4995840;28;20054;-85
2022/11/12 02:01:37;;;;;;;36.50;18.73;;;7.20;99.90;;;;;;5014723;28;20112;-83
2022/11/12 02:04:03;;;;;;;36.95;18.25;;;7.20;99.90;;;;;;5011107;28;20492;-85
2022/11/12 02:06:30;;;;;;;33.92;20.48;;;7.20;99.90;;;;;;5011349;28;20517;-82
2022/11/12 02:08:57;;;;;;;31.73;18.20;;;7.20;99.90;;;;;;4979244;28;20817;-81
2022/11/12 02:11:23;;;;;;;36.03;19.73;;;7.10;99.90;;;;;;4993717;28;20057;-82
2022/11/12 02:13:59;;;;;;;28.55;16.35;;;7.10;99.90;;;;;;5013673;28;20042;-82
2022/11/12 02:16:46;;;;;;;29.88;17.05;;;7.00;99.90;;;;;;5014428;28;20046;-82
2022/11/12 02:19:15;;;;;;;28.98;16.60;;;7.00;99.90;;;;;;5010932;28;20525;-81
2022/11/12 02:21:42;;;;;;;34.83;18.27;;;7.00;99.90;;;;;;4993601;28;20062;-85
2022/11/12 02:24:10;;;;;;;35.15;18.38;;;6.90;99.90;;;;;;5013933;28;20497;-81
2022/11/12 02:26:43;;;;;;;33.13;18.42;;;6.90;99.90;;;;;;4997676;28;20117;-82
2022/11/12 02:29:09;;;;;;;36.45;18.60;;;6.80;99.90;;;;;;5020894;28;20053;-83
2022/11/12 02:31:35;;;;;;;30.45;16.52;;;6.80;99.90;;;;;;5003129;28;20151;-81
2022/11/12 02:34:02;;;;;;;35.90;18.17;;;6.70;99.90;;;;;;5006229;28;20062;-81
2022/11/12 02:36:29;;;;;;;32.47;19.08;;;6.80;99.90;;;;;;4987825;28;20138;-80
2022/11/12 02:38:55;;;;;;;33.25;17.35;;;6.70;99.90;;;;;;5017003;28;20056;-82
2022/11/12 02:41:22;;;;;;;29.75;17.08;;;6.70;99.90;;;;;;4996239;28;20062;-81
2022/11/12 02:43:48;;;;;;;32.20;17.42;;;6.70;99.90;;;;;;5017294;28;20108;-82
2022/11/12 02:46:14;;;;;;;34.95;18.45;;;6.70;99.90;;;;;;5017085;28;20041;-81
2022/11/12 02:48:40;;;;;;;40.00;20.17;;;6.70;99.90;;;;;;5015018;28;20054;-83
2022/11/12 02:51:06;;;;;;;38.45;18.98;;;6.70;99.90;;;;;;5014818;28;20052;-84
2022/11/12 02:53:33;;;;;;;31.73;17.00;;;6.70;99.90;;;;;;4981562;28;20054;-81
2022/11/12 02:56:00;;;;;;;36.55;19.50;;;6.70;99.90;;;;;;5003206;28;20049;-82
2022/11/12 02:58:26;;;;;;;35.38;19.52;;;6.70;99.90;;;;;;5015535;28;20062;-82
2022/11/12 03:00:52;;;;;;;38.60;21.02;;;6.60;99.90;;;;;;5015932;28;20054;-82
2022/11/12 03:03:18;;;;;;;35.50;19.90;;;6.60;99.90;;;;;;5016300;28;20053;-83
2022/11/12 03:05:45;;;;;;;35.42;20.73;;;6.60;99.90;;;;;;5014752;28;20108;-82
2022/11/12 03:08:11;;;;;;;37.85;20.13;;;6.60;99.90;;;;;;4997489;28;20085;-82
2022/11/12 03:10:38;;;;;;;38.35;20.80;;;6.60;99.90;;;;;;5021167;28;20096;-81
2022/11/12 03:13:05;;;;;;;37.53;20.33;;;6.60;99.90;;;;;;5016117;28;20053;-81
2022/11/12 03:15:31;;;;;;;40.25;20.50;;;6.50;99.90;;;;;;4996750;28;20169;-81
2022/11/12 03:17:58;;;;;;;37.20;20.98;;;6.50;99.90;;;;;;5014422;28;20053;-82
2022/11/12 03:20:24;;;;;;;35.83;20.50;;;6.50;99.90;;;;;;4998326;28;20053;-83
2022/11/12 03:23:03;;;;;;;33.65;18.70;;;6.50;99.90;;;;;;4996563;28;20057;-82
2022/11/12 03:25:29;;;;;;;41.13;23.35;;;6.50;99.90;;;;;;4996577;28;20060;-83
2022/11/12 03:27:57;;;;;;;42.53;23.63;;;6.50;99.90;;;;;;5002624;28;20050;-85
2022/11/12 03:30:28;;;;;;;39.70;21.17;;;6.50;99.90;;;;;;4995591;28;20050;-82
2022/11/12 03:32:55;;;;;;;49.08;24.20;;;6.50;99.90;;;;;;5012752;28;20556;-83
2022/11/12 03:35:21;;;;;;;41.38;22.95;;;6.60;99.90;;;;;;5012950;28;20442;-84
2022/11/12 03:37:47;;;;;;;43.42;23.80;;;6.60;99.90;;;;;;5013062;28;20050;-82
2022/11/12 03:40:13;;;;;;;54.28;27.80;;;6.70;99.90;;;;;;4995312;28;20050;-82
2022/11/12 03:42:45;;;;;;;47.65;27.33;;;6.80;99.90;;;;;;4994812;28;20073;-85
2022/11/12 03:45:11;;;;;;;48.30;27.58;;;6.90;99.90;;;;;;5019199;28;20146;-82
2022/11/12 03:47:47;;;;;;;57.95;28.85;;;7.00;99.90;;;;;;4995565;28;20109;-82
2022/11/12 03:50:14;;;;;;;53.67;28.08;;;7.10;99.90;;;;;;5012696;28;20137;-82
2022/11/12 03:52:48;;;;;;;67.82;30.48;;;7.10;99.90;;;;;;4995081;28;20454;-84
2022/11/12 03:55:17;;;;;;;64.88;28.75;;;7.20;99.90;;;;;;5012167;28;20094;-82
2022/11/12 03:57:43;;;;;;;65.50;29.60;;;7.30;99.90;;;;;;5012854;28;20077;-82
2022/11/12 04:00:10;;;;;;;77.18;34.03;;;7.30;99.90;;;;;;5017960;28;20104;-84
2022/11/12 04:02:36;;;;;;;83.18;33.67;;;7.40;99.90;;;;;;4978542;28;20054;-82
2022/11/12 04:10:35;;;;;;;114.10;39.65;;;7.60;99.90;;;;;;5012851;28;20052;-84
2022/11/12 04:21:49;;;;;;;95.97;33.53;;;7.60;99.90;;;;;;4996494;28;20061;-83
2022/11/12 04:23:59;;;;;;;100.33;37.33;;;7.70;99.90;;;;;;5013056;28;20321;-85
2022/11/12 04:26:26;;;;;;;97.72;35.15;;;7.70;99.90;;;;;;4998555;28;20093;-83
2022/11/12 04:31:36;;;;;;;129.35;43.90;;;7.70;99.90;;;;;;5013345;28;20056;-82
2022/11/12 04:36:46;;;;;;;175.00;48.10;;;7.80;99.90;;;;;;5013236;28;20057;-82
2022/11/12 04:39:12;;;;;;;171.60;44.17;;;7.80;99.90;;;;;;4996813;28;20050;-82
2022/11/12 04:47:07;;;;;;;232.60;54.47;;;7.90;99.90;;;;;;5012544;28;20062;-81
2022/11/12 04:49:33;;;;;;;213.27;46.95;;;7.90;99.90;;;;;;4979467;28;20060;-84
2022/11/12 04:52:04;;;;;;;207.05;52.33;;;7.90;99.90;;;;;;4998422;28;20050;-82
2022/11/12 04:54:31;;;;;;;252.88;52.38;;;8.00;99.90;;;;;;5012804;28;20453;-81
2022/11/12 04:56:57;;;;;;;272.33;54.88;;;8.00;99.90;;;;;;4995051;28;20133;-84
2022/11/12 04:59:23;;;;;;;287.67;57.53;;;8.00;99.90;;;;;;5013438;28;20125;-83
2022/11/12 05:01:49;;;;;;;317.08;59.15;;;8.10;99.90;;;;;;5015824;28;20042;-86
2022/11/12 05:04:15;;;;;;;310.70;60.28;;;8.10;99.90;;;;;;5017312;28;20038;-82
2022/11/12 05:06:53;;;;;;;328.30;62.97;;;8.10;99.90;;;;;;5014953;28;20058;-81
2022/11/12 05:09:21;;;;;;;254.10;50.80;;;8.10;99.90;;;;;;4964070;28;20137;-81
2022/11/12 05:11:47;;;;;;;312.67;57.13;;;8.20;99.90;;;;;;5012018;28;20501;-81
2022/11/12 05:14:13;;;;;;;370.45;67.28;;;8.20;99.90;;;;;;4994371;28;20097;-81
2022/11/12 05:16:39;;;;;;;326.40;60.30;;;8.20;99.90;;;;;;4994895;28;20444;-82
2022/11/12 05:19:06;;;;;;;375.80;66.88;;;8.20;99.90;;;;;;5001966;28;20046;-85
2022/11/12 05:24:16;;;;;;;304.23;55.15;;;8.20;99.90;;;;;;5012251;28;20116;-84
2022/11/12 05:26:42;;;;;;;232.43;49.22;;;8.20;99.90;;;;;;4994655;28;20418;-83
2022/11/12 05:29:08;;;;;;;229.77;49.08;;;8.20;99.90;;;;;;5014004;28;20049;-81
2022/11/12 05:31:34;;;;;;;228.60;47.53;;;8.20;99.90;;;;;;4997263;28;20061;-82
2022/11/12 05:34:00;;;;;;;260.92;52.40;;;8.20;99.90;;;;;;4979091;28;20049;-85
2022/11/12 05:36:26;;;;;;;271.08;52.25;;;8.20;99.90;;;;;;5012310;28;20111;-83
2022/11/12 05:38:52;;;;;;;236.43;50.63;;;8.20;99.90;;;;;;5011683;28;20058;-81
2022/11/12 05:41:18;;;;;;;271.92;53.60;;;8.20;99.90;;;;;;4994082;28;20049;-82
2022/11/12 05:43:44;;;;;;;286.92;58.50;;;8.20;99.90;;;;;;5013301;28;20479;-84
2022/11/12 05:46:10;;;;;;;259.15;50.47;;;8.20;99.90;;;;;;4998328;28;20130;-84
2022/11/12 05:48:36;;;;;;;312.17;53.15;;;8.20;99.90;;;;;;4994468;28;20113;-82
2022/11/12 05:51:02;;;;;;;248.30;48.67;;;8.20;99.90;;;;;;5012451;28;20073;-84
2022/11/12 05:53:28;;;;;;;269.70;50.20;;;8.20;99.90;;;;;;4993819;28;20185;-83
2022/11/12 05:56:01;;;;;;;227.35;46.78;;;8.20;99.90;;;;;;4994815;28;20064;-82
2022/11/12 05:58:27;;;;;;;184.23;39.38;;;8.20;99.90;;;;;;4978707;28;20127;-83
2022/11/12 06:00:53;;;;;;;167.07;40.25;;;8.10;99.90;;;;;;5016118;28;20056;-83
2022/11/12 06:03:19;;;;;;;187.57;39.53;;;8.10;99.90;;;;;;4995457;28;20490;-83
2022/11/12 06:05:45;;;;;;;167.13;38.13;;;8.10;99.90;;;;;;5013807;28;20466;-81
2022/11/12 06:08:10;;;;;;;204.05;41.22;;;8.10;99.90;;;;;;5015055;28;20185;-82
2022/11/12 06:10:36;;;;;;;206.60;42.13;;;8.10;99.90;;;;;;5016600;28;20046;-82
2022/11/12 06:13:02;;;;;;;213.00;41.80;;;8.10;99.90;;;;;;5015330;28;20494;-84
2022/11/12 06:15:28;;;;;;;206.40;42.47;;;8.10;99.90;;;;;;5015996;28;20042;-84
2022/11/12 06:17:55;;;;;;;131.45;34.58;;;8.10;99.90;;;;;;5013248;28;20719;-83
2022/11/12 06:20:22;;;;;;;151.00;34.47;;;8.10;99.90;;;;;;4980579;28;20113;-82
2022/11/12 06:22:48;;;;;;;252.05;44.72;;;8.00;99.90;;;;;;4994042;28;20472;-82
2022/11/12 06:25:15;;;;;;;173.18;35.00;;;8.10;99.90;;;;;;5012598;28;20397;-85
2022/11/12 06:27:40;;;;;;;186.32;36.40;;;8.00;99.90;;;;;;5014286;28;20058;-81
2022/11/12 06:30:08;;;;;;;168.65;33.38;;;8.10;99.90;;;;;;4999217;28;20060;-81
2022/11/12 06:32:34;;;;;;;179.68;34.40;;;8.10;99.90;;;;;;5011032;28;20482;-81
2022/11/12 06:35:00;;;;;;;203.88;37.88;;;8.10;99.90;;;;;;4993526;28;20052;-81
2022/11/12 06:37:26;;;;;;;129.98;27.73;;;8.00;99.90;;;;;;4993120;28;20494;-82
2022/11/12 06:39:52;;;;;;;157.00;32.95;;;8.00;99.90;;;;;;5010747;28;20505;-82
2022/11/12 06:42:18;;;;;;;303.13;44.58;;;8.00;99.90;;;;;;5014701;28;20110;-81
2022/11/12 06:44:44;;;;;;;161.52;30.52;;;8.00;99.90;;;;;;5016578;28;20049;-81
2022/11/12 06:47:10;;;;;;;237.63;36.65;;;8.00;99.90;;;;;;5010862;28;20050;-82
2022/11/12 06:49:36;;;;;;;158.27;30.17;;;8.00;99.90;;;;;;5010857;28;20045;-81
2022/11/12 06:52:02;;;;;;;176.38;31.25;;;8.00;99.90;;;;;;4993113;28;20065;-83
2022/11/12 06:54:28;;;;;;;214.23;33.08;;;8.00;99.90;;;;;;5010780;28;20050;-81
2022/11/12 06:56:54;;;;;;;131.75;29.02;;;8.00;99.90;;;;;;5012455;28;20058;-82
2022/11/12 06:59:20;;;;;;;97.97;25.10;;;7.90;99.90;;;;;;5016621;28;20058;-82
2022/11/12 07:01:46;;;;;;;187.80;34.65;;;8.00;99.90;;;;;;5011291;28;20049;-83
2022/11/12 07:04:12;;;;;;;157.15;29.88;;;8.00;99.90;;;;;;4993458;28;20057;-82
2022/11/12 07:06:38;;;;;;;222.13;38.33;;;8.00;99.90;;;;;;5010629;28;20128;-82
2022/11/12 07:09:05;;;;;;;177.98;33.22;;;7.90;99.90;;;;;;4993533;28;20050;-84
2022/11/12 07:11:31;;;;;;;137.75;26.48;;;7.90;99.90;;;;;;4976960;28;20080;-81
2022/11/12 07:13:57;;;;;;;152.70;28.17;;;7.90;99.90;;;;;;5017490;28;20046;-81
2022/11/12 07:16:23;;;;;;;174.30;29.23;;;7.90;99.90;;;;;;5010526;28;20112;-83
2022/11/12 07:18:49;;;;;;;180.30;27.75;;;7.90;99.90;;;;;;5009715;28;20093;-84
2022/11/12 07:21:19;;;;;;;293.13;41.08;;;7.90;99.90;;;;;;5010629;28;20092;-82
2022/11/12 07:23:46;;;;;;;189.75;31.98;;;7.90;99.90;;;;;;5010802;28;20057;-81
2022/11/12 07:26:21;;;;;;;142.25;29.45;;;7.90;99.90;;;;;;5003000;28;20101;-84
2022/11/12 07:28:48;;;;;;;;;;;7.90;99.90;;;;;;4999152;28;20057;-82
2022/11/12 07:31:16;;;;;;;199.35;32.35;;;7.90;99.90;;;;;;5012968;28;20392;-82
2022/11/12 07:33:43;;;;;;;247.57;38.55;;;7.90;99.90;;;;;;5015121;28;20050;-83
2022/11/12 07:36:14;;;;;;;190.30;36.45;;;8.00;99.90;;;;;;4996847;28;20200;-84
2022/11/12 07:38:41;;;;;;;396.48;55.85;;;8.00;99.90;;;;;;4996723;28;20061;-81
2022/11/12 07:41:11;;;;;;;195.70;35.90;;;8.00;99.90;;;;;;5016204;28;20062;-81
2022/11/12 07:43:37;;;;;;;202.63;36.60;;;8.00;99.90;;;;;;5016646;28;20050;-82
2022/11/12 07:46:05;;;;;;;256.63;45.85;;;8.00;99.90;;;;;;4996382;28;20049;-82
2022/11/12 07:48:33;;;;;;;138.85;34.78;;;8.00;99.90;;;;;;5013868;28;20093;-83
2022/11/12 07:51:00;;;;;;;233.45;44.22;;;8.00;99.90;;;;;;5014102;28;20575;-85
2022/11/12 07:53:27;;;;;;;211.35;41.65;;;8.10;99.90;;;;;;5015267;28;20060;-82
2022/11/12 07:55:58;;;;;;;285.13;51.42;;;8.10;99.90;;;;;;4997846;28;20053;-83
2022/11/12 07:58:26;;;;;;;269.85;47.35;;;8.10;99.90;;;;;;5021046;28;20050;-84
2022/11/12 08:00:52;;;;;;;165.55;38.08;;;8.10;99.90;;;;;;5014278;28;20115;-84
2022/11/12 08:03:19;;;;;;;234.25;45.30;;;8.10;99.90;;;;;;5013849;28;20073;-84
2022/11/12 08:05:46;;;;;;;321.33;55.97;;;8.10;99.90;;;;;;4995690;28;20062;-82
2022/11/12 08:08:12;;;;;;;232.27;47.63;;;8.10;99.90;;;;;;5015084;28;20058;-81
2022/11/12 08:10:38;;;;;;;205.75;43.75;;;8.20;99.90;;;;;;5017858;28;20111;-84
2022/11/12 08:13:04;;;;;;;229.43;45.28;;;8.10;99.90;;;;;;5013744;28;20057;-82
2022/11/12 08:15:31;;;;;;;166.57;37.25;;;8.10;99.90;;;;;;5013672;28;20453;-80
2022/11/12 08:17:57;;;;;;;289.65;55.03;;;8.10;99.90;;;;;;5013555;28;20081;-84
2022/11/12 08:20:23;;;;;;;153.00;39.22;;;8.20;99.90;;;;;;5013464;28;20454;-82
2022/11/12 08:22:49;;;;;;;113.85;36.00;;;8.20;99.90;;;;;;4995408;28;20096;-80
2022/11/12 08:25:15;;;;;;;193.50;45.28;;;8.20;99.90;;;;;;5019401;28;20053;-83
2022/11/12 08:27:41;;;;;;;231.25;45.97;;;8.20;99.90;;;;;;5013384;28;20053;-81
2022/11/12 08:30:08;;;;;;;270.10;51.90;;;8.30;99.90;;;;;;4996234;28;20045;-81
2022/11/12 08:32:34;;;;;;;172.55;41.13;;;8.20;99.90;;;;;;4995476;28;20054;-82
2022/11/12 08:34:59;;;;;;;218.20;48.97;;;8.30;99.90;;;;;;5013719;28;20093;-82
2022/11/12 08:37:25;;;;;;;216.82;49.70;;;8.30;99.90;;;;;;5013872;28;20045;-81
2022/11/12 08:39:51;;;;;;;174.27;41.85;;;8.30;99.90;;;;;;4999228;28;20486;-81
2022/11/12 08:42:20;;;;;;;266.15;61.78;;;8.30;99.90;;;;;;4994508;28;20457;-81
2022/11/12 08:44:46;;;;;;;359.77;73.25;;;8.30;99.90;;;;;;4996379;28;20140;-84
2022/11/12 08:47:12;;;;;;;314.63;69.50;;;8.30;99.90;;;;;;5014319;28;20136;-82
2022/11/12 08:49:38;;;;;;;410.88;95.93;;;8.30;99.90;;;;;;5013344;28;20038;-81
2022/11/12 08:52:07;;;;;;;394.30;93.28;;;8.30;99.90;;;;;;4983804;28;20066;-82
2022/11/12 08:54:33;;;;;;;346.88;85.25;;;8.40;99.90;;;;;;5002094;28;20057;-81
2022/11/12 08:56:59;;;;;;;563.95;128.10;;;8.40;99.90;;;;;;4980635;28;20058;-83
2022/11/12 08:59:25;;;;;;;486.30;103.15;;;8.40;99.90;;;;;;5014352;28;20149;-82
2022/11/12 09:01:51;;;;;;;362.05;76.50;;;8.40;99.90;;;;;;4994816;28;20061;-82
2022/11/12 09:04:17;;;;;;;338.20;68.63;;;8.40;99.90;;;;;;5013440;28;20521;-81
2022/11/12 09:06:43;;;;;;;281.15;53.83;;;8.30;99.90;;;;;;5018793;28;20149;-82
2022/11/12 09:09:09;;;;;;;289.02;50.17;;;8.40;99.90;;;;;;5012740;28;20126;-83
2022/11/12 09:11:35;;;;;;;250.13;50.60;;;8.40;99.90;;;;;;5012462;28;20065;-83
2022/11/12 09:14:01;;;;;;;282.80;46.15;;;8.40;99.90;;;;;;4979808;28;20409;-83
2022/11/12 09:16:27;;;;;;;221.57;42.70;;;8.30;99.90;;;;;;5013425;28;20592;-83
2022/11/12 09:18:52;;;;;;;203.85;40.60;;;8.30;99.90;;;;;;5000496;28;20054;-81
2022/11/12 09:21:23;;;;;;;273.85;43.08;;;8.30;99.90;;;;;;5015602;28;20132;-84
2022/11/12 09:23:49;;;;;;;247.48;43.33;;;8.30;99.90;;;;;;4996526;28;20077;-82
2022/11/12 09:26:15;;;;;;;269.67;46.50;;;8.20;99.90;;;;;;5012835;28;20046;-82
2022/11/12 09:28:41;;;;;;;239.98;43.55;;;8.20;99.90;;;;;;4996080;28;20442;-83
2022/11/12 09:31:07;;;;;;;225.38;43.42;;;8.20;99.90;;;;;;4995567;28;20093;-82
2022/11/12 09:33:33;;;;;;;245.88;48.47;;;8.20;99.90;;;;;;4995766;28;20096;-82
2022/11/12 09:36:02;;;;;;;172.75;38.42;;;8.30;99.90;;;;;;5017196;28;20038;-80
2022/11/12 09:38:28;;;;;;;133.70;34.72;;;8.30;99.90;;;;;;5019200;28;20464;-83
2022/11/12 09:41:09;;;;;;;150.77;38.60;;;8.20;99.90;;;;;;5016277;28;20406;-81
2022/11/12 09:43:52;;;;;;;152.40;39.53;;;8.30;99.90;;;;;;5015617;28;20057;-81
2022/11/12 09:46:37;;;;;;;120.35;35.72;;;8.30;99.90;;;;;;4998080;28;20506;-81
2022/11/12 09:49:11;;;;;;;;;;;8.30;99.90;;;;;;4995263;28;20064;-82
2022/11/12 09:51:52;;;;;;;142.20;39.25;;;8.30;99.90;;;;;;5012838;28;20036;-83
2022/11/12 09:54:27;;;;;;;125.88;38.05;;;8.30;99.90;;;;;;4979508;28;20162;-82
2022/11/12 09:56:54;;;;;;;163.00;38.17;;;8.30;99.90;;;;;;5013909;28;20405;-80
2022/11/12 09:59:22;;;;;;;208.02;45.28;;;8.30;99.90;;;;;;5011580;28;20405;-82
2022/11/12 10:02:00;;;;;;;135.98;34.33;;;8.20;99.90;;;;;;5011449;28;20076;-82
2022/11/12 10:04:54;;;;;;;108.72;32.88;;;8.20;99.90;;;;;;5011623;28;20046;-82
2022/11/12 10:07:35;;;;;;;166.70;38.78;;;8.20;99.90;;;;;;5012774;28;20057;-83
2022/11/12 10:10:19;;;;;;;78.15;33.00;;;8.20;99.90;;;;;;4999308;28;20126;-82
2022/11/12 10:13:13;;;;;;;66.22;31.73;;;8.20;99.90;;;;;;5011664;28;20073;-83
2022/11/12 10:19:13;;;;;;;69.53;31.08;;;8.20;99.90;;;;;;4993174;28;20065;-83
2022/11/12 10:21:46;;;;;;;70.10;30.92;;;8.20;99.90;;;;;;4993449;28;20053;-82
2022/11/12 10:24:12;;;;;;;110.55;37.20;;;8.20;99.90;;;;;;5015244;28;20046;-83
2022/11/12 10:26:39;;;;;;;100.70;37.00;;;8.30;99.90;;;;;;5011519;28;20516;-82
2022/11/12 10:29:13;;;;;;;90.40;34.33;;;8.30;99.90;;;;;;5011558;28;20430;-81
2022/11/12 10:31:39;;;;;;;98.93;36.88;;;8.30;99.90;;;;;;5011289;28;20081;-82
2022/11/12 10:34:16;;;;;;;96.60;36.22;;;8.40;99.90;;;;;;4994044;28;20107;-82
2022/11/12 10:36:50;;;;;;;129.63;38.70;;;8.30;99.90;;;;;;5017682;28;20076;-82
2022/11/12 10:39:46;;;;;;;89.30;35.85;;;8.30;99.90;;;;;;4993416;28;20088;-82
2022/11/12 10:42:15;;;;;;;102.22;37.55;;;8.40;99.90;;;;;;4977921;28;20402;-82
2022/11/12 10:44:42;;;;;;;82.65;34.55;;;8.40;99.90;;;;;;4993170;28;20050;-83
2022/11/12 10:47:21;;;;;;;89.93;36.95;;;8.40;99.90;;;;;;5010887;28;20578;-83
2022/11/12 10:50:12;;;;;;;124.88;39.67;;;8.40;99.90;;;;;;4996677;28;20057;-82
2022/11/12 10:52:39;;;;;;;90.57;36.17;;;8.40;99.90;;;;;;5011531;28;20405;-81
2022/11/12 10:55:17;;;;;;;130.15;42.42;;;8.50;99.90;;;;;;4977470;28;20046;-84
2022/11/12 10:57:44;;;;;;;96.45;38.90;;;8.50;99.90;;;;;;5011057;28;20132;-81
2022/11/12 11:00:13;;;;;;;121.43;42.70;;;8.60;99.90;;;;;;4977159;28;20072;-82
2022/11/12 11:02:53;;;;;;;104.40;39.30;;;8.60;99.90;;;;;;5011204;28;20046;-81
2022/11/12 11:05:47;;;;;;;96.45;40.63;;;8.70;99.90;;;;;;5015132;28;20402;-84
2022/11/12 11:08:13;;;;;;;110.18;41.78;;;8.70;99.90;;;;;;5014602;28;20062;-81
2022/11/12 11:10:39;;;;;;;146.43;48.45;;;8.80;99.90;;;;;;5014719;28;20042;-81
2022/11/12 11:13:24;;;;;;;152.25;47.88;;;8.80;99.90;;;;;;5014815;28;20085;-82
2022/11/12 11:16:06;;;;;;;116.30;42.90;;;8.90;99.90;;;;;;4998692;28;20534;-84
2022/11/12 11:18:36;;;;;;;104.25;42.35;;;8.90;99.90;;;;;;4985066;28;20061;-81
2022/11/12 11:21:23;;;;;;;110.25;43.20;;;9.00;99.90;;;;;;4996820;28;20475;-81
2022/11/12 11:24:01;;;;;;;143.05;49.60;;;9.00;99.90;;;;;;4996911;28;20046;-81
2022/11/12 11:26:51;;;;;;;105.90;42.47;;;9.00;99.90;;;;;;5014202;28;20128;-82
2022/11/12 11:29:25;;;;;;;103.47;43.00;;;9.00;99.90;;;;;;4996181;28;20050;-81
2022/11/12 11:32:12;;;;;;;114.30;44.08;;;9.10;99.90;;;;;;5014082;28;20049;-83
2022/11/12 11:34:40;;;;;;;124.68;46.80;;;9.10;99.90;;;;;;5014231;28;20082;-81
2022/11/12 11:37:23;;;;;;;126.15;46.30;;;9.20;99.90;;;;;;4998016;28;20058;-82
2022/11/12 11:40:14;;;;;;;137.13;47.55;;;9.10;99.90;;;;;;5017690;28;20049;-82
2022/11/12 11:42:56;;;;;;;141.88;51.78;;;9.10;99.90;;;;;;5003323;28;20452;-81
2022/11/12 11:45:44;;;;;;;99.35;41.05;;;9.20;99.90;;;;;;4979838;28;20162;-81
2022/11/12 11:48:50;;;;;;;111.32;49.17;;;9.10;99.90;;;;;;4996441;28;20058;-81
2022/11/12 11:51:29;;;;;;;96.55;38.42;;;9.20;99.90;;;;;;4934239;29;20064;-82
2022/11/12 11:54:06;;;;;;;89.60;37.10;;;9.10;99.90;;;;;;4990760;28;20053;-81
2022/11/12 11:56:37;;;;;;;84.90;37.95;;;9.10;99.90;;;;;;5019618;28;20073;-83
2022/11/12 11:59:26;;;;;;;89.38;38.28;;;9.10;99.90;;;;;;5015596;28;20046;-83
2022/11/12 12:02:01;;;;;;;113.18;46.72;;;9.10;99.90;;;;;;4977005;28;20046;-81
2022/11/12 12:04:36;;;;;;;91.28;39.88;;;9.20;99.90;;;;;;4996185;28;20065;-80
2022/11/12 12:07:05;;;;;;;83.85;38.78;;;9.20;99.90;;;;;;4996081;28;20136;-82
2022/11/12 12:09:49;;;;;;;95.90;41.47;;;9.20;99.90;;;;;;4996390;28;20112;-84
2022/11/12 12:12:40;;;;;;;81.82;37.70;;;9.20;99.90;;;;;;5014030;28;20062;-82
2022/11/12 12:15:17;;;;;;;83.18;37.55;;;9.20;99.90;;;;;;5013470;28;20054;-82
2022/11/12 12:18:02;;;;;;;93.13;40.83;;;9.20;99.90;;;;;;4995661;28;20049;-81
2022/11/12 12:20:49;;;;;;;81.97;39.97;;;9.10;99.90;;;;;;4997908;28;20128;-81
2022/11/12 12:23:36;;;;;;;84.03;39.30;;;9.20;99.90;;;;;;5016617;28;20061;-83
2022/11/12 12:26:09;;;;;;;81.40;39.28;;;9.20;99.90;;;;;;4995954;28;20469;-82
2022/11/12 12:29:05;;;;;;;85.43;40.33;;;9.30;99.90;;;;;;4995489;28;20093;-83
2022/11/12 12:31:36;;;;;;;85.70;40.45;;;9.30;99.90;;;;;;5005400;28;20053;-82
2022/11/12 12:34:13;;;;;;;86.40;40.88;;;9.30;99.90;;;;;;4996084;28;20057;-84
2022/11/12 12:36:41;;;;;;;80.82;38.92;;;9.30;99.90;;;;;;5012949;28;20462;-82
2022/11/12 12:39:25;;;;;;;80.90;40.55;;;9.30;99.90;;;;;;4995403;28;20050;-84
2022/11/12 12:42:00;;;;;;;72.90;37.58;;;9.30;99.90;;;;;;4995950;28;20065;-82
2022/11/12 12:47:18;;;;;;;80.45;38.95;;;9.20;99.90;;;;;;5014188;28;20139;-83
2022/11/12 12:49:48;;;;;;;92.10;40.55;;;9.30;99.90;;;;;;4995755;28;20518;-84
2022/11/12 12:52:14;;;;;;;92.75;41.65;;;9.20;99.90;;;;;;4995141;28;20064;-84
2022/11/12 12:54:53;;;;;;;94.85;42.42;;;9.30;99.90;;;;;;4995403;28;20053;-83
2022/11/12 12:57:37;;;;;;;83.28;41.47;;;9.30;99.90;;;;;;5013441;28;20045;-84
2022/11/12 13:00:45;;;;;;;79.72;39.60;;;9.30;99.90;;;;;;5019840;28;20547;-82
2022/11/12 13:03:11;;;;;;;79.03;40.35;;;9.30;99.90;;;;;;5011885;28;20069;-82
2022/11/12 13:05:39;;;;;;;74.32;38.47;;;9.40;99.90;;;;;;4999017;28;20085;-82
2022/11/12 13:08:21;;;;;;;72.55;38.03;;;9.40;99.90;;;;;;5012983;28;20045;-85
2022/11/12 13:10:50;;;;;;;80.03;39.78;;;9.40;99.90;;;;;;5014410;28;20073;-85
2022/11/12 13:13:19;;;;;;;84.55;42.25;;;9.50;99.90;;;;;;5012635;28;20093;-82
2022/11/12 13:15:48;;;;;;;87.25;43.25;;;9.50;99.90;;;;;;5012311;28;20053;-81
2022/11/12 13:18:36;;;;;;;89.22;43.15;;;9.60;99.90;;;;;;5012924;28;20056;-83
2022/11/12 13:21:17;;;;;;;91.43;43.60;;;9.60;99.90;;;;;;5014705;28;20184;-81